createdAt,value
2023-05-17T00:01:46.026Z,2.63
2023-05-17T00:04:13.130Z,2.13
2023-05-17T00:06:39.586Z,2.20
2023-05-17T00:09:06.146Z,2.00
2023-05-17T00:11:32.647Z,2.10
2023-05-17T00:13:59.004Z,2.23
2023-05-17T00:16:25.398Z,2.27
2023-05-17T00:18:51.999Z,2.30
2023-05-17T00:21:18.506Z,2.53
2023-05-17T00:23:44.873Z,2.53
2023-05-17T00:26:11.416Z,2.40
2023-05-17T00:28:37.803Z,2.20
2023-05-17T00:31:04.236Z,2.40
2023-05-17T00:33:30.668Z,2.40
2023-05-17T00:35:57.222Z,2.23
2023-05-17T00:38:23.752Z,2.30
2023-05-17T00:40:50.757Z,2.37
2023-05-17T00:43:17.112Z,2.20
2023-05-17T00:45:43.645Z,2.10
2023-05-17T00:48:10.340Z,2.53
2023-05-17T00:50:37.257Z,2.37
2023-05-17T00:53:03.670Z,2.30
2023-05-17T00:55:30.745Z,2.27
2023-05-17T00:57:57.476Z,2.40
2023-05-17T01:00:24.295Z,2.03
2023-05-17T01:02:50.898Z,2.80
2023-05-17T01:05:17.728Z,2.33
2023-05-17T01:07:44.180Z,1.90
2023-05-17T01:10:10.836Z,2.10
2023-05-17T01:12:58.459Z,2.33
2023-05-17T01:15:30.231Z,2.13
2023-05-17T01:18:20.140Z,2.53
2023-05-17T01:20:48.379Z,2.80
2023-05-17T01:23:31.358Z,2.40
2023-05-17T01:26:08.810Z,2.30
2023-05-17T01:28:38.334Z,2.17
2023-05-17T01:31:05.811Z,2.40
2023-05-17T01:33:32.831Z,2.00
2023-05-17T01:35:59.268Z,2.20
2023-05-17T01:38:25.692Z,2.27
2023-05-17T01:41:02.326Z,2.07
2023-05-17T01:43:41.598Z,2.40
2023-05-17T01:46:28.687Z,2.27
2023-05-17T01:49:06.718Z,2.00
2023-05-17T01:51:37.139Z,2.93
2023-05-17T01:54:11.349Z,2.33
2023-05-17T01:56:42.954Z,2.63
2023-05-17T01:59:11.642Z,2.10
2023-05-17T02:01:39.508Z,2.10
2023-05-17T02:04:06.056Z,2.53
2023-05-17T02:06:32.780Z,3.20
2023-05-17T02:09:02.545Z,2.50
2023-05-17T02:11:29.037Z,2.23
2023-05-17T02:13:55.572Z,2.27
2023-05-17T02:16:22.159Z,2.70
2023-05-17T02:18:48.688Z,2.70
2023-05-17T02:21:15.205Z,2.83
2023-05-17T02:23:41.592Z,2.90
2023-05-17T02:26:08.032Z,2.50
2023-05-17T02:28:34.819Z,2.83
2023-05-17T02:31:01.261Z,2.47
2023-05-17T02:33:28.116Z,3.00
2023-05-17T02:35:54.540Z,2.57
2023-05-17T02:38:20.990Z,2.90
2023-05-17T02:40:47.398Z,2.70
2023-05-17T02:43:13.851Z,2.70
2023-05-17T02:45:40.262Z,2.30
2023-05-17T02:48:06.942Z,2.50
2023-05-17T02:50:33.589Z,2.77
2023-05-17T02:52:59.947Z,2.60
2023-05-17T02:55:26.603Z,2.57
2023-05-17T02:57:53.507Z,2.50
2023-05-17T03:00:20.069Z,2.23
2023-05-17T03:02:48.563Z,2.30
2023-05-17T03:05:15.143Z,2.20
2023-05-17T03:07:42.482Z,2.40
2023-05-17T03:10:09.093Z,2.40
2023-05-17T03:12:35.544Z,2.40
2023-05-17T03:15:02.106Z,2.60
2023-05-17T03:17:28.632Z,2.20
2023-05-17T03:19:55.281Z,2.63
2023-05-17T03:22:22.294Z,2.40
2023-05-17T03:24:48.739Z,2.30
2023-05-17T03:27:15.319Z,2.30
2023-05-17T03:29:41.924Z,2.80
2023-05-17T03:32:08.726Z,2.10
2023-05-17T03:34:35.103Z,2.20
2023-05-17T03:37:01.676Z,2.30
2023-05-17T03:39:28.100Z,2.30
2023-05-17T03:41:54.966Z,2.43
2023-05-17T03:44:21.554Z,2.20
2023-05-17T03:46:47.896Z,2.20
2023-05-17T03:49:14.300Z,2.23
2023-05-17T03:51:40.833Z,2.00
2023-05-17T03:54:07.239Z,2.33
2023-05-17T03:56:33.665Z,1.90
2023-05-17T03:59:00.108Z,2.30
2023-05-17T04:01:26.703Z,2.10
2023-05-17T04:03:53.284Z,2.17
2023-05-17T04:06:19.875Z,2.60
2023-05-17T04:08:46.293Z,2.50
2023-05-17T04:11:13.918Z,2.57
2023-05-17T04:13:41.282Z,2.60
2023-05-17T04:16:08.987Z,2.33
2023-05-17T04:18:36.971Z,2.30
2023-05-17T04:21:04.117Z,2.50
2023-05-17T04:23:31.908Z,2.27
2023-05-17T04:25:58.574Z,2.33
2023-05-17T04:28:26.115Z,2.10
2023-05-17T04:30:53.022Z,3.47
2023-05-17T04:33:20.075Z,2.27
2023-05-17T04:35:46.806Z,2.60
2023-05-17T04:38:13.476Z,2.43
2023-05-17T04:40:40.848Z,2.47
2023-05-17T04:43:07.252Z,2.60
2023-05-17T04:45:33.877Z,2.70
2023-05-17T04:48:00.748Z,3.20
2023-05-17T04:50:27.530Z,2.63
2023-05-17T04:52:53.933Z,2.73
2023-05-17T04:55:20.353Z,2.60
2023-05-17T04:57:46.793Z,2.60
2023-05-17T05:00:15.535Z,2.63
2023-05-17T05:02:42.401Z,3.00
2023-05-17T05:05:12.306Z,3.33
2023-05-17T05:07:39.959Z,3.60
2023-05-17T05:10:07.164Z,4.20
2023-05-17T05:12:33.625Z,4.77
2023-05-17T05:15:01.183Z,4.17
2023-05-17T05:17:31.057Z,5.30
2023-05-17T05:19:57.756Z,4.70
2023-05-17T05:22:24.348Z,5.00
2023-05-17T05:24:51.109Z,5.67
2023-05-17T05:27:17.503Z,4.90
2023-05-17T05:29:44.203Z,5.10
2023-05-17T05:32:10.708Z,5.27
2023-05-17T05:34:38.901Z,5.50
2023-05-17T05:37:05.420Z,5.53
2023-05-17T05:39:33.097Z,5.47
2023-05-17T05:41:59.643Z,6.77
2023-05-17T05:44:26.107Z,6.93
2023-05-17T05:46:52.582Z,7.53
2023-05-17T05:49:19.449Z,7.33
2023-05-17T05:51:45.889Z,7.80
2023-05-17T05:54:13.368Z,7.87
2023-05-17T05:56:40.013Z,9.73
2023-05-17T05:59:06.474Z,9.50
2023-05-17T06:01:34.026Z,9.87
2023-05-17T06:04:00.598Z,9.77
2023-05-17T06:06:27.201Z,11.33
2023-05-17T06:08:54.103Z,11.20
2023-05-17T06:11:21.016Z,11.20
2023-05-17T06:13:50.328Z,11.40
2023-05-17T06:16:16.682Z,12.80
2023-05-17T06:18:43.706Z,11.40
2023-05-17T06:21:10.207Z,12.47
2023-05-17T06:23:36.582Z,12.93
2023-05-17T06:26:03.047Z,13.47
2023-05-17T06:28:29.467Z,14.50
2023-05-17T06:30:55.909Z,14.40
2023-05-17T06:33:22.532Z,14.67
2023-05-17T06:35:57.019Z,15.50
2023-05-17T06:38:24.790Z,15.30
2023-05-17T06:40:55.519Z,15.83
2023-05-17T06:43:22.321Z,14.13
2023-05-17T06:45:48.801Z,14.90
2023-05-17T06:48:15.726Z,14.37
2023-05-17T06:50:42.677Z,14.90
2023-05-17T06:53:09.158Z,12.37
2023-05-17T06:55:35.660Z,13.47
2023-05-17T06:58:02.186Z,12.63
2023-05-17T07:00:29.179Z,14.23
2023-05-17T07:02:56.112Z,12.30
2023-05-17T07:05:24.144Z,12.20
2023-05-17T07:07:50.635Z,12.40
2023-05-17T07:10:18.578Z,11.07
2023-05-17T07:12:45.153Z,11.17
2023-05-17T07:15:11.679Z,11.43
2023-05-17T07:17:38.206Z,11.17
2023-05-17T07:20:06.221Z,10.33
2023-05-17T07:22:33.058Z,10.60
2023-05-17T07:24:59.527Z,10.87
2023-05-17T07:27:25.929Z,10.27
2023-05-17T07:29:52.420Z,9.23
2023-05-17T07:32:18.814Z,7.27
2023-05-17T07:34:46.050Z,7.27
2023-05-17T07:37:18.607Z,7.10
2023-05-17T07:39:45.120Z,5.97
2023-05-17T07:42:14.355Z,5.47
2023-05-17T07:44:40.752Z,3.93
2023-05-17T07:47:07.247Z,3.53
2023-05-17T07:49:33.800Z,3.30
2023-05-17T07:52:00.303Z,3.07
2023-05-17T07:54:29.882Z,3.37
2023-05-17T07:56:56.663Z,4.77
2023-05-17T07:59:23.897Z,2.83
2023-05-17T08:01:51.041Z,3.07
2023-05-17T08:04:19.129Z,3.40
2023-05-17T08:06:46.987Z,2.80
2023-05-17T08:09:13.419Z,2.70
2023-05-17T08:11:45.802Z,2.50
2023-05-17T08:14:16.679Z,2.50
2023-05-17T08:16:45.335Z,2.70
2023-05-17T08:19:13.281Z,2.23
2023-05-17T08:21:43.259Z,2.70
2023-05-17T08:24:09.983Z,2.63
2023-05-17T08:26:36.465Z,2.97
2023-05-17T08:29:04.668Z,3.00
2023-05-17T08:31:32.206Z,2.33
2023-05-17T08:33:58.677Z,2.57
2023-05-17T08:36:25.173Z,2.90
2023-05-17T08:38:52.494Z,2.67
2023-05-17T08:41:19.450Z,2.70
2023-05-17T08:43:47.169Z,2.80
2023-05-17T08:46:15.835Z,2.60
2023-05-17T08:48:44.536Z,2.60
2023-05-17T08:51:12.040Z,2.57
2023-05-17T08:53:38.713Z,2.50
2023-05-17T08:56:06.918Z,2.40
2023-05-17T08:58:48.170Z,3.03
2023-05-17T09:01:24.391Z,2.30
2023-05-17T09:03:52.346Z,2.93
2023-05-17T09:06:22.962Z,2.80
2023-05-17T09:08:54.934Z,2.57
2023-05-17T09:11:27.778Z,2.30
2023-05-17T09:13:58.720Z,2.70
2023-05-17T09:16:26.440Z,2.60
2023-05-17T09:18:57.511Z,2.53
2023-05-17T09:21:25.786Z,3.10
2023-05-17T09:24:05.466Z,3.00
2023-05-17T09:26:44.846Z,2.83
2023-05-17T09:29:16.025Z,2.70
2023-05-17T09:31:43.819Z,3.07
2023-05-17T09:34:10.802Z,2.90
2023-05-17T09:36:38.672Z,2.50
2023-05-17T09:39:07.806Z,2.60
2023-05-17T09:41:41.367Z,2.63
2023-05-17T09:44:11.801Z,2.40
2023-05-17T09:46:41.901Z,3.20
2023-05-17T09:49:09.302Z,2.70
2023-05-17T09:51:38.732Z,2.97
2023-05-17T09:54:07.301Z,2.50
2023-05-17T09:56:34.967Z,2.83
2023-05-17T09:59:02.205Z,2.67
2023-05-17T10:01:30.946Z,2.63
2023-05-17T10:04:04.420Z,3.00
2023-05-17T10:06:44.730Z,2.47
2023-05-17T10:09:14.888Z,2.87
2023-05-17T10:11:47.024Z,2.77
2023-05-17T10:14:22.770Z,3.03
2023-05-17T10:16:51.035Z,2.73
2023-05-17T10:19:20.150Z,2.43
2023-05-17T10:21:50.050Z,2.50
2023-05-17T10:24:17.461Z,2.60
2023-05-17T10:26:44.199Z,2.67
2023-05-17T10:29:10.862Z,2.40
2023-05-17T10:31:37.418Z,2.47
2023-05-17T10:34:06.318Z,2.30
2023-05-17T10:36:33.880Z,2.30
2023-05-17T10:39:01.856Z,2.60
2023-05-17T10:41:34.139Z,2.53
2023-05-17T10:44:07.982Z,2.40
2023-05-17T10:46:35.704Z,2.40
2023-05-17T10:49:02.603Z,2.70
2023-05-17T10:51:34.819Z,2.30
2023-05-17T10:54:04.263Z,2.50
2023-05-17T10:56:31.431Z,2.50
2023-05-17T10:59:23.934Z,2.80
2023-05-17T11:01:54.481Z,2.30
2023-05-17T11:04:39.354Z,3.13
2023-05-17T11:07:27.807Z,2.77
2023-05-17T11:10:00.505Z,2.30
2023-05-17T11:12:44.080Z,2.23
2023-05-17T11:15:12.535Z,2.30
2023-05-17T11:17:51.666Z,2.40
2023-05-17T11:20:28.227Z,2.60
2023-05-17T11:23:15.945Z,2.50
2023-05-17T11:25:42.686Z,2.53
2023-05-17T11:28:20.155Z,2.77
2023-05-17T11:30:53.589Z,2.83
2023-05-17T11:33:32.772Z,2.70
2023-05-17T11:36:05.340Z,2.47
2023-05-17T11:38:32.781Z,2.50
2023-05-17T11:41:26.673Z,2.30
2023-05-17T11:43:54.331Z,2.47
2023-05-17T11:46:22.672Z,2.20
2023-05-17T11:48:53.919Z,2.10
2023-05-17T11:51:23.819Z,1.97
2023-05-17T11:53:54.454Z,2.20
2023-05-17T11:56:29.039Z,2.30
2023-05-17T11:59:04.121Z,2.67
2023-05-17T12:01:43.340Z,2.27
2023-05-17T12:04:09.892Z,2.40
2023-05-17T12:06:36.659Z,2.33
2023-05-17T12:09:03.494Z,2.27
2023-05-17T12:11:30.452Z,2.30
2023-05-17T12:13:57.038Z,1.93
2023-05-17T12:16:23.929Z,2.27
2023-05-17T12:18:52.078Z,2.23
2023-05-17T12:21:21.788Z,2.10
2023-05-17T12:23:51.657Z,2.50
2023-05-17T12:26:21.395Z,2.30
2023-05-17T12:28:59.633Z,2.17
2023-05-17T12:31:34.965Z,2.67
2023-05-17T12:34:04.929Z,2.37
2023-05-17T12:36:33.655Z,2.20
2023-05-17T12:39:01.554Z,2.27
2023-05-17T12:41:29.603Z,2.80
2023-05-17T12:44:06.192Z,2.50
2023-05-17T12:46:40.065Z,2.23
2023-05-17T12:49:08.419Z,2.20
2023-05-17T12:51:45.614Z,2.60
2023-05-17T12:54:29.559Z,1.93
2023-05-17T12:56:56.314Z,2.23
2023-05-17T12:59:25.498Z,2.40
2023-05-17T13:01:55.689Z,1.93
2023-05-17T13:04:31.638Z,2.30
2023-05-17T13:07:00.322Z,2.37
2023-05-17T13:09:30.806Z,2.50
2023-05-17T13:12:05.020Z,2.27
2023-05-17T13:14:35.237Z,2.13
2023-05-17T13:17:02.961Z,2.40
2023-05-17T13:19:29.628Z,3.50
2023-05-17T13:21:56.235Z,2.27
2023-05-17T13:24:22.718Z,2.20
2023-05-17T13:26:49.253Z,2.50
2023-05-17T13:29:16.363Z,2.57
2023-05-17T13:31:43.912Z,2.07
2023-05-17T13:34:10.515Z,2.00
2023-05-17T13:36:37.007Z,2.53
2023-05-17T13:39:04.556Z,2.57
2023-05-17T13:41:31.136Z,2.47
2023-05-17T13:43:57.549Z,2.60
2023-05-17T13:46:23.934Z,2.17
2023-05-17T13:48:50.509Z,2.30
2023-05-17T13:51:16.973Z,2.23
2023-05-17T13:53:44.153Z,2.00
2023-05-17T13:56:10.846Z,2.33
2023-05-17T13:58:37.298Z,2.20
2023-05-17T14:01:04.465Z,2.13
2023-05-17T14:03:31.104Z,2.43
2023-05-17T14:05:57.770Z,2.10
2023-05-17T14:08:24.238Z,2.60
2023-05-17T14:10:50.878Z,2.10
2023-05-17T14:13:17.313Z,2.37
2023-05-17T14:15:43.674Z,2.57
2023-05-17T14:18:10.502Z,2.20
2023-05-17T14:20:37.054Z,2.17
2023-05-17T14:23:03.503Z,2.50
2023-05-17T14:25:30.014Z,2.30
2023-05-17T14:27:56.436Z,2.67
2023-05-17T14:30:22.920Z,3.03
2023-05-17T14:32:49.695Z,2.20
2023-05-17T14:35:17.301Z,2.23
2023-05-17T14:37:43.915Z,2.50
2023-05-17T14:40:12.077Z,2.67
2023-05-17T14:42:39.789Z,2.67
2023-05-17T14:45:06.886Z,2.70
2023-05-17T14:47:36.551Z,2.30
2023-05-17T14:50:03.907Z,2.33
2023-05-17T14:52:30.552Z,2.47
2023-05-17T14:54:56.960Z,2.40
2023-05-17T14:57:23.456Z,2.57
2023-05-17T14:59:49.968Z,3.07
2023-05-17T15:02:16.347Z,2.43
2023-05-17T15:04:43.126Z,2.40
2023-05-17T15:07:09.898Z,7.97
2023-05-17T15:09:41.374Z,3.03
2023-05-17T15:12:11.252Z,3.67
2023-05-17T15:14:40.349Z,3.70
2023-05-17T15:17:06.965Z,2.47
2023-05-17T15:19:33.627Z,2.73
2023-05-17T15:22:01.533Z,2.50
2023-05-17T15:24:28.309Z,2.70
2023-05-17T15:26:54.882Z,2.40
2023-05-17T15:29:21.366Z,2.30
2023-05-17T15:31:47.726Z,2.53
2023-05-17T15:34:14.155Z,2.63
2023-05-17T15:36:40.895Z,2.47
2023-05-17T15:39:07.546Z,2.40
2023-05-17T15:41:33.961Z,2.80
2023-05-17T15:44:00.520Z,2.47
2023-05-17T15:46:27.172Z,2.67
2023-05-17T15:48:53.657Z,2.47
2023-05-17T15:51:20.107Z,2.80
2023-05-17T15:53:48.077Z,2.60
2023-05-17T15:56:17.230Z,3.70
2023-05-17T15:58:43.696Z,2.37
2023-05-17T16:01:10.117Z,2.47
2023-05-17T16:03:36.817Z,2.47
2023-05-17T16:06:04.736Z,2.50
2023-05-17T16:08:31.332Z,2.40
2023-05-17T16:10:57.777Z,2.30
2023-05-17T16:13:24.685Z,2.47
2023-05-17T16:15:51.213Z,2.63
2023-05-17T16:18:17.795Z,3.23
2023-05-17T16:20:44.468Z,2.40
2023-05-17T16:23:10.836Z,2.10
2023-05-17T16:25:37.593Z,2.40
2023-05-17T16:28:04.106Z,2.60
2023-05-17T16:30:30.565Z,2.80
2023-05-17T16:32:57.124Z,2.83
2023-05-17T16:35:23.794Z,2.40
2023-05-17T16:37:50.144Z,2.73
2023-05-17T16:40:16.856Z,2.50
2023-05-17T16:42:44.574Z,2.00
2023-05-17T16:45:11.333Z,2.53
2023-05-17T16:47:37.818Z,2.67
2023-05-17T16:50:05.620Z,2.10
2023-05-17T16:52:32.074Z,2.63
2023-05-17T16:55:03.189Z,2.23
2023-05-17T16:57:31.688Z,2.43
2023-05-17T17:00:00.713Z,2.30
2023-05-17T17:02:28.487Z,2.20
2023-05-17T17:04:55.146Z,2.07
2023-05-17T17:07:21.589Z,2.40
2023-05-17T17:09:48.025Z,2.10
2023-05-17T17:12:24.206Z,2.40
2023-05-17T17:14:51.597Z,2.10
2023-05-17T17:17:18.117Z,2.37
2023-05-17T17:19:44.540Z,2.50
2023-05-17T17:22:11.783Z,2.13
2023-05-17T17:24:38.560Z,2.07
2023-05-17T17:27:05.630Z,2.47
2023-05-17T17:29:35.390Z,2.63
2023-05-17T17:32:02.626Z,2.27
2023-05-17T17:34:29.118Z,2.47
2023-05-17T17:36:55.688Z,2.50
2023-05-17T17:39:22.268Z,2.13
2023-05-17T17:41:48.638Z,2.40
2023-05-17T17:44:15.040Z,2.10
2023-05-17T17:46:41.621Z,2.53
2023-05-17T17:49:08.057Z,2.40
2023-05-17T17:51:34.525Z,2.67
2023-05-17T17:54:05.630Z,2.57
2023-05-17T17:56:32.807Z,2.50
2023-05-17T17:58:59.814Z,2.57
2023-05-17T18:01:27.123Z,2.37
2023-05-17T18:03:53.639Z,2.43
2023-05-17T18:06:20.053Z,2.90
2023-05-17T18:08:46.624Z,2.60
2023-05-17T18:11:13.325Z,2.80
2023-05-17T18:13:39.739Z,2.80
2023-05-17T18:16:06.722Z,2.97
2023-05-17T18:18:33.560Z,3.20
2023-05-17T18:20:59.974Z,2.53
2023-05-17T18:23:26.536Z,2.30
2023-05-17T18:25:52.998Z,3.00
2023-05-17T18:28:26.869Z,2.53
2023-05-17T18:31:04.473Z,2.67
2023-05-17T18:33:31.522Z,3.13
2023-05-17T18:35:57.977Z,2.90
2023-05-17T18:38:24.434Z,2.83
2023-05-17T18:40:51.173Z,2.63
2023-05-17T18:43:17.627Z,2.80
2023-05-17T18:45:44.057Z,2.53
2023-05-17T18:48:10.589Z,2.83
2023-05-17T18:50:37.034Z,2.77
2023-05-17T18:53:03.488Z,3.00
2023-05-17T18:55:29.929Z,3.20
2023-05-17T18:57:56.396Z,3.27
2023-05-17T19:00:22.973Z,3.43
2023-05-17T19:02:49.389Z,3.30
2023-05-17T19:05:15.906Z,3.10
2023-05-17T19:07:42.375Z,2.60
2023-05-17T19:10:09.480Z,2.63
2023-05-17T19:12:36.051Z,2.87
2023-05-17T19:15:03.867Z,3.07
2023-05-17T19:17:30.421Z,3.63
2023-05-17T19:19:56.913Z,2.67
2023-05-17T19:22:23.483Z,3.07
2023-05-17T19:24:50.835Z,3.20
2023-05-17T19:27:19.538Z,3.50
2023-05-17T19:29:47.157Z,3.30
2023-05-17T19:32:13.817Z,3.23
2023-05-17T19:34:40.327Z,2.50
2023-05-17T19:37:06.761Z,2.70
2023-05-17T19:39:33.189Z,3.33
2023-05-17T19:41:59.607Z,3.17
2023-05-17T19:44:26.270Z,3.10
2023-05-17T19:46:52.731Z,2.90
2023-05-17T19:49:19.279Z,3.20
2023-05-17T19:51:46.742Z,3.20
2023-05-17T19:54:13.189Z,2.97
2023-05-17T19:56:39.647Z,3.03
2023-05-17T19:59:06.239Z,3.30
2023-05-17T20:01:32.666Z,3.63
2023-05-17T20:03:59.288Z,3.10
2023-05-17T20:06:25.971Z,3.37
2023-05-17T20:08:52.390Z,3.30
2023-05-17T20:11:18.895Z,3.53
2023-05-17T20:13:45.451Z,4.60
2023-05-17T20:16:14.881Z,3.93
2023-05-17T20:18:43.349Z,4.30
2023-05-17T20:21:15.816Z,3.10
2023-05-17T20:23:42.548Z,3.47
2023-05-17T20:26:16.176Z,3.07
2023-05-17T20:28:46.227Z,3.40
2023-05-17T20:31:13.639Z,3.17
2023-05-17T20:33:40.093Z,2.87
2023-05-17T20:36:06.604Z,4.53
2023-05-17T20:38:32.971Z,3.00
2023-05-17T20:41:00.743Z,2.97
2023-05-17T20:43:28.818Z,3.20
2023-05-17T20:45:55.626Z,3.10
2023-05-17T20:48:22.089Z,3.30
2023-05-17T20:50:49.026Z,2.93
2023-05-17T20:53:15.555Z,2.63
2023-05-17T20:55:44.378Z,3.17
2023-05-17T20:58:11.253Z,3.83
2023-05-17T21:00:38.310Z,3.23
2023-05-17T21:03:05.006Z,3.73
2023-05-17T21:05:35.964Z,3.77
2023-05-17T21:08:02.856Z,4.27
2023-05-17T21:10:29.799Z,3.87
2023-05-17T21:12:56.646Z,3.87
2023-05-17T21:15:23.253Z,3.70
2023-05-17T21:17:50.174Z,4.30
2023-05-17T21:20:17.076Z,3.70
2023-05-17T21:22:44.349Z,4.47
2023-05-17T21:25:11.003Z,3.67
2023-05-17T21:27:37.449Z,3.70
2023-05-17T21:30:04.150Z,4.87
2023-05-17T21:32:30.691Z,5.80
2023-05-17T21:34:59.517Z,4.80
2023-05-17T21:37:26.033Z,5.17
2023-05-17T21:39:52.522Z,5.00
2023-05-17T21:42:18.954Z,4.93
2023-05-17T21:44:45.294Z,5.70
2023-05-17T21:47:11.705Z,4.20
2023-05-17T21:49:38.100Z,4.60
2023-05-17T21:52:04.814Z,6.87
2023-05-17T21:54:31.269Z,6.00
2023-05-17T21:56:57.660Z,5.30
2023-05-17T21:59:24.981Z,4.30
2023-05-17T22:01:53.866Z,3.23
2023-05-17T22:04:20.528Z,3.47
2023-05-17T22:06:46.924Z,3.90
2023-05-17T22:09:13.817Z,3.80
2023-05-17T22:11:40.537Z,3.37
2023-05-17T22:14:07.590Z,3.43
2023-05-17T22:16:35.931Z,3.90
2023-05-17T22:19:03.711Z,3.27
2023-05-17T22:21:32.046Z,3.40
2023-05-17T22:23:59.647Z,3.97
2023-05-17T22:26:27.592Z,3.93
2023-05-17T22:28:54.423Z,3.60
2023-05-17T22:31:20.939Z,3.17
2023-05-17T22:33:47.472Z,3.27
2023-05-17T22:36:14.247Z,3.03
2023-05-17T22:38:42.694Z,3.30
2023-05-17T22:41:10.508Z,3.40
2023-05-17T22:43:37.376Z,3.23
2023-05-17T22:46:04.225Z,3.57
2023-05-17T22:48:32.034Z,3.03
2023-05-17T22:51:00.970Z,3.17
2023-05-17T22:53:29.319Z,3.40
2023-05-17T22:55:55.952Z,3.40
2023-05-17T22:58:26.142Z,3.10
2023-05-17T23:00:53.042Z,2.97
2023-05-17T23:03:20.287Z,3.47
2023-05-17T23:05:46.789Z,3.70
2023-05-17T23:08:15.698Z,2.90
2023-05-17T23:10:45.153Z,2.93
2023-05-17T23:13:12.446Z,3.30
2023-05-17T23:15:40.620Z,3.17
2023-05-17T23:18:07.147Z,3.27
2023-05-17T23:20:34.856Z,4.03
2023-05-17T23:23:01.717Z,3.53
2023-05-17T23:25:29.051Z,3.17
2023-05-17T23:27:57.968Z,3.73
2023-05-17T23:30:24.796Z,2.87
2023-05-17T23:32:52.193Z,2.77
2023-05-17T23:35:18.868Z,3.00
2023-05-17T23:37:45.355Z,3.03
2023-05-17T23:40:12.712Z,3.03
2023-05-17T23:42:40.466Z,2.87
2023-05-17T23:45:07.590Z,3.03
2023-05-17T23:47:34.033Z,3.27
2023-05-17T23:50:01.096Z,2.80
2023-05-17T23:52:29.964Z,3.33
2023-05-17T23:54:59.182Z,3.77
2023-05-17T23:57:25.648Z,3.07
2023-05-17T23:59:52.219Z,4.23
